createdAt,value
2023-03-13T00:01:30.653Z,3.57
2023-03-13T00:04:18.262Z,2.77
2023-03-13T00:07:04.956Z,3.20
2023-03-13T00:09:50.952Z,2.77
2023-03-13T00:12:37.428Z,4.43
2023-03-13T00:15:23.870Z,2.20
2023-03-13T00:18:10.276Z,3.30
2023-03-13T00:21:01.717Z,2.17
2023-03-13T00:23:48.489Z,3.73
2023-03-13T00:26:34.829Z,2.10
2023-03-13T00:29:20.953Z,3.17
2023-03-13T00:32:07.372Z,2.40
2023-03-13T00:34:53.939Z,2.33
2023-03-13T00:37:41.809Z,2.47
2023-03-13T00:40:28.435Z,2.47
2023-03-13T00:43:14.586Z,2.27
2023-03-13T00:46:01.008Z,2.00
2023-03-13T00:48:47.859Z,3.63
2023-03-13T00:51:34.418Z,2.37
2023-03-13T00:54:22.361Z,2.03
2023-03-13T00:57:08.532Z,2.13
2023-03-13T00:59:55.288Z,2.77
2023-03-13T01:02:44.995Z,3.00
2023-03-13T01:05:31.237Z,2.87
2023-03-13T01:08:17.836Z,3.20
2023-03-13T01:11:06.067Z,2.57
2023-03-13T01:13:55.082Z,4.03
2023-03-13T01:16:41.632Z,2.83
2023-03-13T01:19:28.080Z,3.43
2023-03-13T01:22:14.736Z,2.87
2023-03-13T01:25:01.293Z,2.63
2023-03-13T01:27:48.920Z,3.53
2023-03-13T01:30:35.235Z,2.40
2023-03-13T01:33:21.694Z,3.10
2023-03-13T01:36:08.842Z,2.20
2023-03-13T01:38:56.058Z,2.93
2023-03-13T01:41:42.345Z,3.60
2023-03-13T01:44:30.251Z,1.73
2023-03-13T01:47:16.688Z,1.87
2023-03-13T01:50:03.655Z,2.33
2023-03-13T01:52:50.012Z,1.90
2023-03-13T01:55:36.647Z,2.27
2023-03-13T01:58:23.260Z,2.40
2023-03-13T02:01:11.265Z,2.23
2023-03-13T02:03:59.060Z,1.90
2023-03-13T02:06:46.502Z,2.77
2023-03-13T02:09:33.734Z,2.07
2023-03-13T02:12:23.924Z,2.07
2023-03-13T02:15:13.017Z,2.00
2023-03-13T02:18:00.834Z,3.63
2023-03-13T02:20:47.466Z,2.67
2023-03-13T02:23:36.067Z,3.00
2023-03-13T02:26:23.649Z,3.63
2023-03-13T02:29:18.210Z,2.10
2023-03-13T02:32:05.044Z,2.13
2023-03-13T02:34:53.852Z,2.10
2023-03-13T02:37:40.491Z,2.97
2023-03-13T02:40:29.442Z,2.10
2023-03-13T02:43:17.694Z,2.60
2023-03-13T02:46:09.380Z,2.30
2023-03-13T02:48:56.881Z,4.70
2023-03-13T02:51:45.942Z,2.93
2023-03-13T02:54:34.674Z,7.20
2023-03-13T02:57:20.957Z,3.20
2023-03-13T03:00:12.692Z,4.23
2023-03-13T03:02:59.175Z,2.60
2023-03-13T03:05:45.451Z,4.77
2023-03-13T03:08:31.577Z,2.53
2023-03-13T03:11:18.077Z,2.63
2023-03-13T03:14:04.256Z,5.17
2023-03-13T03:16:51.793Z,7.83
2023-03-13T03:19:38.098Z,4.13
2023-03-13T03:22:24.458Z,4.40
2023-03-13T03:25:11.201Z,3.10
2023-03-13T03:27:57.667Z,3.40
2023-03-13T03:30:44.120Z,4.80
2023-03-13T03:33:31.572Z,3.03
2023-03-13T03:36:19.165Z,4.17
2023-03-13T03:39:05.568Z,5.57
2023-03-13T03:41:51.839Z,4.27
2023-03-13T03:44:38.314Z,4.10
2023-03-13T03:47:24.745Z,4.50
2023-03-13T03:50:12.791Z,4.63
2023-03-13T03:52:59.342Z,4.73
2023-03-13T03:55:45.895Z,3.70
2023-03-13T03:58:32.450Z,3.67
2023-03-13T04:01:18.577Z,4.03
2023-03-13T04:04:04.817Z,4.97
2023-03-13T04:06:52.751Z,4.53
2023-03-13T04:09:39.108Z,4.53
2023-03-13T04:12:25.416Z,3.20
2023-03-13T04:15:12.380Z,3.60
2023-03-13T04:17:58.730Z,7.80
2023-03-13T04:20:45.221Z,3.27
2023-03-13T04:23:33.078Z,3.57
2023-03-13T04:26:19.640Z,6.10
2023-03-13T04:29:07.205Z,3.77
2023-03-13T04:31:53.683Z,5.67
2023-03-13T04:34:39.738Z,4.13
2023-03-13T04:37:25.881Z,3.10
2023-03-13T04:40:14.597Z,4.23
2023-03-13T04:43:00.652Z,7.33
2023-03-13T04:45:47.695Z,3.23
2023-03-13T04:48:34.019Z,3.07
2023-03-13T04:51:20.627Z,3.77
2023-03-13T04:54:06.968Z,2.73
2023-03-13T04:56:54.803Z,13.90
2023-03-13T04:59:41.206Z,4.93
2023-03-13T05:02:27.723Z,3.60
2023-03-13T05:05:14.072Z,3.87
2023-03-13T05:08:00.576Z,6.47
2023-03-13T05:10:48.163Z,2.57
2023-03-13T05:13:35.935Z,2.60
2023-03-13T05:16:22.370Z,4.87
2023-03-13T05:19:09.004Z,3.87
2023-03-13T05:21:55.426Z,3.87
2023-03-13T05:24:42.028Z,6.50
2023-03-13T05:27:28.667Z,3.90
2023-03-13T05:30:16.616Z,2.77
2023-03-13T05:33:03.441Z,3.90
2023-03-13T05:35:50.170Z,4.27
2023-03-13T05:38:36.817Z,5.03
2023-03-13T05:41:23.299Z,7.80
2023-03-13T05:44:09.543Z,5.07
2023-03-13T05:46:57.747Z,5.27
2023-03-13T05:49:43.902Z,5.03
2023-03-13T05:52:30.133Z,10.40
2023-03-13T05:55:18.417Z,12.00
2023-03-13T05:58:04.993Z,3.70
2023-03-13T06:00:51.671Z,5.40
2023-03-13T06:03:39.714Z,8.03
2023-03-13T06:06:26.154Z,6.23
2023-03-13T06:09:12.223Z,5.37
2023-03-13T06:11:58.544Z,7.00
2023-03-13T06:14:44.970Z,7.57
2023-03-13T06:17:31.321Z,8.93
2023-03-13T06:20:19.258Z,8.60
2023-03-13T06:23:05.939Z,6.03
2023-03-13T06:25:52.083Z,7.53
2023-03-13T06:28:38.367Z,5.97
2023-03-13T06:31:25.146Z,7.00
2023-03-13T06:34:12.444Z,7.20
2023-03-13T06:37:00.647Z,6.93
2023-03-13T06:39:47.066Z,5.97
2023-03-13T06:42:33.504Z,8.00
2023-03-13T06:45:20.184Z,6.93
2023-03-13T06:48:07.111Z,5.63
2023-03-13T06:50:54.272Z,6.23
2023-03-13T06:53:42.037Z,5.67
2023-03-13T06:56:28.511Z,6.20
2023-03-13T06:59:14.588Z,6.80
2023-03-13T07:02:01.119Z,11.07
2023-03-13T07:04:47.636Z,9.17
2023-03-13T07:07:34.540Z,6.27
2023-03-13T07:10:26.172Z,5.80
2023-03-13T07:13:12.689Z,7.93
2023-03-13T07:16:01.010Z,6.60
2023-03-13T07:18:47.577Z,8.07
2023-03-13T07:21:34.021Z,8.63
2023-03-13T07:24:21.259Z,6.73
2023-03-13T07:27:09.075Z,6.93
2023-03-13T07:29:55.493Z,8.40
2023-03-13T07:32:42.269Z,9.50
2023-03-13T07:35:29.160Z,9.20
2023-03-13T07:38:15.340Z,9.90
2023-03-13T07:41:02.074Z,7.13
2023-03-13T07:43:50.201Z,8.83
2023-03-13T07:46:36.529Z,8.63
2023-03-13T07:49:23.048Z,8.50
2023-03-13T07:52:11.669Z,8.17
2023-03-13T07:54:58.133Z,7.00
2023-03-13T07:57:44.278Z,6.67
2023-03-13T08:00:32.272Z,5.83
2023-03-13T08:03:19.903Z,6.20
2023-03-13T08:06:07.585Z,7.87
2023-03-13T08:08:57.456Z,5.10
2023-03-13T08:11:44.609Z,5.57
2023-03-13T08:14:30.853Z,7.43
2023-03-13T08:17:18.404Z,6.53
2023-03-13T08:20:05.690Z,5.17
2023-03-13T08:22:52.150Z,4.57
2023-03-13T08:25:38.788Z,4.90
2023-03-13T08:28:25.429Z,4.63
2023-03-13T08:31:13.003Z,6.20
2023-03-13T08:34:00.809Z,4.57
2023-03-13T08:36:47.532Z,5.30
2023-03-13T08:39:33.833Z,5.50
2023-03-13T08:42:20.489Z,4.60
2023-03-13T08:45:07.603Z,4.53
2023-03-13T08:47:54.507Z,3.37
2023-03-13T08:50:42.357Z,3.80
2023-03-13T08:53:28.678Z,4.70
2023-03-13T08:56:16.578Z,3.57
2023-03-13T08:59:03.722Z,4.47
2023-03-13T09:01:49.805Z,5.97
2023-03-13T09:04:36.259Z,4.07
2023-03-13T09:07:24.441Z,3.43
2023-03-13T09:10:11.670Z,4.10
2023-03-13T09:12:57.740Z,3.47
2023-03-13T09:15:44.372Z,4.60
2023-03-13T09:18:30.940Z,6.30
2023-03-13T09:21:19.157Z,3.10
2023-03-13T09:24:07.311Z,7.30
2023-03-13T09:27:00.927Z,4.17
2023-03-13T09:29:47.948Z,5.50
2023-03-13T09:32:34.764Z,4.17
2023-03-13T09:35:21.274Z,4.33
2023-03-13T09:38:07.789Z,3.57
2023-03-13T09:41:05.617Z,3.07
2023-03-13T09:43:54.850Z,4.80
2023-03-13T09:46:44.954Z,3.77
2023-03-13T09:49:33.090Z,3.57
2023-03-13T09:52:20.702Z,3.47
2023-03-13T09:55:15.596Z,4.90
2023-03-13T09:58:05.666Z,3.20
2023-03-13T10:00:53.829Z,5.50
2023-03-13T10:03:41.529Z,5.40
2023-03-13T10:06:30.037Z,5.07
2023-03-13T10:09:20.601Z,5.27
2023-03-13T10:12:08.619Z,4.57
2023-03-13T10:15:01.958Z,3.80
2023-03-13T10:17:48.107Z,3.83
2023-03-13T10:20:36.550Z,4.23
2023-03-13T10:23:27.629Z,4.13
2023-03-13T10:26:16.482Z,4.93
2023-03-13T10:29:03.499Z,4.70
2023-03-13T10:31:55.760Z,3.17
2023-03-13T10:34:57.185Z,3.23
2023-03-13T10:37:45.006Z,3.70
2023-03-13T10:40:31.232Z,4.43
2023-03-13T10:43:22.318Z,3.37
2023-03-13T10:46:09.994Z,2.20
2023-03-13T10:48:58.171Z,4.50
2023-03-13T10:51:48.487Z,2.57
2023-03-13T10:54:37.240Z,3.30
2023-03-13T10:57:29.630Z,3.73
2023-03-13T11:00:29.952Z,4.83
2023-03-13T11:03:18.657Z,2.27
2023-03-13T11:06:06.738Z,3.00
2023-03-13T11:08:59.501Z,2.67
2023-03-13T11:11:47.217Z,2.50
2023-03-13T11:14:33.981Z,2.77
2023-03-13T11:17:25.013Z,2.97
2023-03-13T11:20:19.790Z,3.03
2023-03-13T11:23:16.057Z,2.70
2023-03-13T11:26:08.188Z,5.97
2023-03-13T11:28:57.246Z,3.17
2023-03-13T11:31:46.513Z,2.40
2023-03-13T11:34:35.782Z,3.97
2023-03-13T11:37:23.457Z,3.67
2023-03-13T11:40:17.659Z,2.30
2023-03-13T11:43:24.475Z,2.57
2023-03-13T11:46:23.879Z,2.67
2023-03-13T11:49:25.132Z,2.80
2023-03-13T11:52:19.621Z,2.30
2023-03-13T11:55:17.593Z,2.23
2023-03-13T11:58:16.553Z,1.70
2023-03-13T12:01:04.514Z,2.43
2023-03-13T12:03:56.785Z,3.00
2023-03-13T12:06:45.592Z,2.30
2023-03-13T12:09:34.507Z,2.20
2023-03-13T12:12:24.528Z,2.07
2023-03-13T12:15:19.298Z,2.27
2023-03-13T12:18:08.107Z,3.23
2023-03-13T12:20:57.763Z,2.00
2023-03-13T12:23:47.280Z,2.33
2023-03-13T12:26:36.626Z,3.70
2023-03-13T12:29:29.356Z,3.20
2023-03-13T12:32:18.097Z,2.60
2023-03-13T12:35:09.019Z,15.33
2023-03-13T12:37:56.358Z,3.00
2023-03-13T12:40:45.188Z,2.07
2023-03-13T12:43:32.853Z,2.37
2023-03-13T12:46:29.220Z,1.80
2023-03-13T12:49:34.257Z,2.80
2023-03-13T12:52:30.034Z,1.80
2023-03-13T12:55:25.006Z,2.17
2023-03-13T12:58:15.097Z,2.63
2023-03-13T13:01:04.622Z,1.83
2023-03-13T13:03:54.299Z,2.70
2023-03-13T13:06:57.996Z,1.77
2023-03-13T13:09:59.806Z,2.63
2023-03-13T13:12:47.103Z,1.80
2023-03-13T13:15:33.909Z,2.33
2023-03-13T13:18:25.982Z,2.87
2023-03-13T13:21:22.442Z,2.40
2023-03-13T13:24:23.455Z,1.77
2023-03-13T13:27:24.955Z,2.17
2023-03-13T13:30:30.652Z,1.60
2023-03-13T13:33:40.333Z,2.20
2023-03-13T13:36:43.079Z,2.13
2023-03-13T13:39:37.007Z,2.33
2023-03-13T13:42:45.635Z,2.20
2023-03-13T13:45:33.072Z,1.73
2023-03-13T13:48:33.778Z,1.57
2023-03-13T13:51:23.875Z,2.50
2023-03-13T13:54:25.076Z,1.93
2023-03-13T13:57:26.045Z,1.50
2023-03-13T14:00:20.902Z,1.63
2023-03-13T14:03:17.745Z,1.73
2023-03-13T14:06:05.390Z,2.13
2023-03-13T14:08:54.122Z,2.60
2023-03-13T14:11:40.504Z,1.80
2023-03-13T14:14:26.626Z,1.60
2023-03-13T14:17:14.788Z,3.20
2023-03-13T14:20:01.068Z,1.77
2023-03-13T14:22:48.207Z,1.97
2023-03-13T14:25:45.573Z,1.60
2023-03-13T14:28:32.059Z,3.23
2023-03-13T14:31:26.062Z,1.77
2023-03-13T14:34:14.165Z,1.87
2023-03-13T14:37:17.297Z,1.70
2023-03-13T14:40:09.622Z,2.10
2023-03-13T14:42:57.344Z,2.57
2023-03-13T14:45:43.772Z,1.83
2023-03-13T14:48:32.069Z,2.60
2023-03-13T14:51:22.055Z,1.73
2023-03-13T14:54:26.411Z,5.07
2023-03-13T14:57:16.213Z,2.73
2023-03-13T15:00:29.807Z,6.23
2023-03-13T15:03:25.446Z,3.90
2023-03-13T15:06:17.057Z,3.87
2023-03-13T15:09:17.990Z,3.57
2023-03-13T15:12:04.890Z,2.33
2023-03-13T15:14:52.448Z,2.93
2023-03-13T15:17:39.092Z,2.10
2023-03-13T15:20:25.679Z,5.13
2023-03-13T15:23:15.282Z,2.90
2023-03-13T15:26:03.184Z,4.03
2023-03-13T15:28:49.840Z,4.37
2023-03-13T15:31:36.711Z,2.90
2023-03-13T15:34:25.463Z,2.50
2023-03-13T15:37:13.352Z,2.27
2023-03-13T15:39:59.677Z,12.77
2023-03-13T15:42:47.633Z,2.50
2023-03-13T15:45:34.095Z,1.87
2023-03-13T15:48:21.448Z,3.40
2023-03-13T15:51:08.265Z,2.90
2023-03-13T15:53:54.819Z,2.23
2023-03-13T15:56:41.566Z,1.57
2023-03-13T15:59:29.534Z,3.27
2023-03-13T16:02:17.213Z,3.10
2023-03-13T16:05:04.706Z,1.83
2023-03-13T16:07:51.097Z,3.83
2023-03-13T16:10:37.515Z,2.13
2023-03-13T16:13:23.665Z,7.30
2023-03-13T16:16:21.464Z,6.27
2023-03-13T16:19:07.829Z,5.70
2023-03-13T16:21:54.487Z,4.00
2023-03-13T16:24:41.070Z,2.90
2023-03-13T16:27:29.071Z,3.73
2023-03-13T16:30:17.367Z,5.80
2023-03-13T16:33:05.223Z,5.10
2023-03-13T16:35:54.690Z,7.03
2023-03-13T16:38:41.085Z,6.63
2023-03-13T16:41:28.404Z,7.03
2023-03-13T16:44:14.824Z,5.50
2023-03-13T16:47:05.896Z,4.10
2023-03-13T16:49:54.235Z,4.97
2023-03-13T16:52:40.606Z,6.37
2023-03-13T16:55:28.635Z,11.33
2023-03-13T16:58:15.452Z,3.10
2023-03-13T17:04:10.660Z,13.80
2023-03-13T17:06:58.228Z,13.87
2023-03-13T17:09:44.770Z,6.20
2023-03-13T17:12:31.474Z,85.17
2023-03-13T17:15:18.317Z,89.80
2023-03-13T17:18:05.346Z,31.33
2023-03-13T17:20:52.600Z,50.13
2023-03-13T17:23:40.428Z,12.47
2023-03-13T17:26:27.631Z,6.87
2023-03-13T17:29:17.056Z,11.93
2023-03-13T17:32:04.245Z,9.00
2023-03-13T17:34:50.768Z,8.43
2023-03-13T17:37:37.530Z,15.37
2023-03-13T17:40:26.821Z,9.13
2023-03-13T17:43:13.390Z,124.63
2023-03-13T17:46:00.031Z,257.30
2023-03-13T17:48:46.766Z,170.93
2023-03-13T17:51:35.735Z,185.57
2023-03-13T17:54:22.152Z,110.67
2023-03-13T17:57:15.013Z,78.97
2023-03-13T18:00:01.248Z,38.90
2023-03-13T18:02:47.758Z,27.10
2023-03-13T18:05:34.511Z,8.90
2023-03-13T18:08:20.807Z,6.70
2023-03-13T18:11:07.320Z,10.80
2023-03-13T18:13:54.929Z,12.70
2023-03-13T18:16:47.056Z,48.13
2023-03-13T18:19:33.419Z,51.63
2023-03-13T18:22:21.589Z,38.03
2023-03-13T18:25:08.425Z,57.03
2023-03-13T18:27:54.575Z,26.13
2023-03-13T18:30:42.157Z,10.97
2023-03-13T18:33:28.515Z,6.07
2023-03-13T18:36:16.251Z,39.13
2023-03-13T18:39:02.847Z,34.83
2023-03-13T18:41:49.629Z,27.20
2023-03-13T18:44:36.289Z,66.63
2023-03-13T18:47:28.543Z,59.37
2023-03-13T18:50:20.365Z,43.73
2023-03-13T18:53:06.985Z,14.63
2023-03-13T18:55:53.474Z,3.20
2023-03-13T18:58:39.970Z,11.00
2023-03-13T19:01:27.469Z,11.07
2023-03-13T19:04:15.297Z,4.90
2023-03-13T19:07:01.681Z,6.87
2023-03-13T19:09:48.208Z,2.97
2023-03-13T19:12:34.604Z,4.33
2023-03-13T19:15:21.925Z,3.80
2023-03-13T19:18:11.583Z,6.07
2023-03-13T19:20:59.465Z,2.80
2023-03-13T19:23:46.162Z,2.57
2023-03-13T19:26:33.385Z,2.00
2023-03-13T19:29:21.118Z,3.73
2023-03-13T19:32:08.300Z,3.90
2023-03-13T19:34:54.961Z,1.80
2023-03-13T19:37:42.933Z,1.60
2023-03-13T19:40:29.828Z,2.53
2023-03-13T19:43:16.213Z,5.67
2023-03-13T19:46:02.667Z,3.83
2023-03-13T19:48:49.810Z,3.17
2023-03-13T19:51:36.142Z,3.23
2023-03-13T19:54:24.402Z,2.17
2023-03-13T19:57:11.331Z,2.73
2023-03-13T19:59:58.044Z,2.80
2023-03-13T20:02:44.313Z,4.83
2023-03-13T20:05:30.626Z,5.20
2023-03-13T20:08:17.315Z,4.83
2023-03-13T20:11:06.273Z,3.43
2023-03-13T20:13:52.988Z,6.80
2023-03-13T20:16:39.572Z,3.00
2023-03-13T20:19:29.160Z,3.50
2023-03-13T20:22:16.079Z,5.07
2023-03-13T20:25:02.258Z,4.30
2023-03-13T20:27:49.992Z,3.97
2023-03-13T20:30:39.937Z,4.17
2023-03-13T20:33:26.338Z,4.33
2023-03-13T20:36:13.867Z,4.40
2023-03-13T20:39:00.578Z,4.37
2023-03-13T20:41:46.863Z,3.73
2023-03-13T20:44:34.662Z,6.93
2023-03-13T20:47:20.982Z,3.80
2023-03-13T20:50:07.984Z,6.47
2023-03-13T20:52:55.611Z,3.37
2023-03-13T20:55:42.230Z,2.53
2023-03-13T20:58:28.311Z,6.73
2023-03-13T21:01:18.404Z,5.73
2023-03-13T21:04:06.208Z,4.00
2023-03-13T21:06:52.480Z,5.30
2023-03-13T21:09:38.651Z,5.60
2023-03-13T21:12:25.132Z,7.27
2023-03-13T21:15:12.260Z,4.07
2023-03-13T21:17:59.997Z,4.57
2023-03-13T21:20:46.782Z,3.47
2023-03-13T21:23:33.516Z,5.80
2023-03-13T21:26:19.936Z,5.00
2023-03-13T21:29:06.266Z,14.13
2023-03-13T21:31:52.455Z,6.73
2023-03-13T21:34:40.291Z,4.53
2023-03-13T21:37:26.765Z,4.47
2023-03-13T21:40:13.888Z,4.67
2023-03-13T21:43:00.347Z,5.10
2023-03-13T21:45:46.651Z,5.07
2023-03-13T21:48:33.201Z,3.17
2023-03-13T21:51:21.241Z,3.80
2023-03-13T21:54:08.138Z,2.33
2023-03-13T21:56:54.635Z,3.23
2023-03-13T21:59:41.079Z,3.93
2023-03-13T22:02:27.529Z,2.73
2023-03-13T22:05:14.157Z,4.37
2023-03-13T22:08:01.827Z,2.37
2023-03-13T22:10:48.617Z,3.10
2023-03-13T22:13:35.120Z,4.93
2023-03-13T22:16:25.319Z,1.50
2023-03-13T22:19:13.899Z,2.90
2023-03-13T22:22:00.321Z,2.33
2023-03-13T22:24:48.282Z,3.00
2023-03-13T22:27:34.836Z,1.77
2023-03-13T22:30:21.013Z,3.07
2023-03-13T22:33:07.836Z,1.50
2023-03-13T22:35:53.988Z,2.17
2023-03-13T22:38:40.712Z,1.53
2023-03-13T22:41:28.652Z,1.80
2023-03-13T22:44:15.007Z,2.60
2023-03-13T22:47:01.443Z,2.07
2023-03-13T22:49:47.936Z,2.70
2023-03-13T22:52:34.403Z,1.10
2023-03-13T22:55:20.757Z,2.07
2023-03-13T22:58:08.531Z,1.60
2023-03-13T23:00:55.875Z,1.90
2023-03-13T23:03:42.252Z,1.70
2023-03-13T23:06:28.425Z,1.40
2023-03-13T23:09:14.769Z,5.53
2023-03-13T23:12:01.297Z,4.87
2023-03-13T23:14:49.254Z,2.43
2023-03-13T23:17:36.412Z,2.67
2023-03-13T23:20:23.017Z,1.47
2023-03-13T23:23:09.741Z,2.93
2023-03-13T23:25:55.870Z,2.30
2023-03-13T23:28:42.282Z,3.03
2023-03-13T23:31:29.838Z,4.13
2023-03-13T23:34:21.810Z,2.63
2023-03-13T23:37:08.253Z,3.73
2023-03-13T23:39:54.283Z,3.37
2023-03-13T23:42:40.776Z,3.07
2023-03-13T23:45:27.155Z,2.70
2023-03-13T23:48:15.529Z,2.50
2023-03-13T23:51:06.364Z,4.10
2023-03-13T23:53:52.945Z,1.83
2023-03-13T23:56:39.050Z,1.90
2023-03-13T23:59:25.503Z,2.07
